Time;durP1;ratioP1;P1;durP2;ratioP2;P2;SDS_P1;SDS_P2;PMS_P1;PMS_P2;Temp;Humidity;BMP_temperature;BMP_pressure;BME280_temperature;BME280_humidity;BME280_pressure;Samples;Min_cycle;Max_cycle;Signal;HPM_P1;HPM_P2
2022/10/31 00:04:23;;;;;;;1.98;0.70;;;20.30;92.30;;;;;;10479946;28;20132;-23
2022/10/31 00:09:25;;;;;;;2.65;1.00;;;20.30;92.70;;;;;;10432629;28;20569;-28
2022/10/31 00:14:28;;;;;;;3.50;0.70;;;19.20;94.30;;;;;;10429428;28;20095;-29
2022/10/31 00:19:30;;;;;;;2.95;0.90;;;19.70;94.00;;;;;;10439562;28;20049;-29
2022/10/31 00:24:32;;;;;;;4.82;1.63;;;19.40;93.00;;;;;;10437372;28;20075;-31
2022/10/31 00:29:35;;;;;;;3.70;1.02;;;18.50;95.30;;;;;;10449426;28;20060;-27
2022/10/31 00:34:37;;;;;;;1.80;0.80;;;19.10;95.70;;;;;;10450108;28;20053;-27
2022/10/31 00:39:39;;;;;;;1.48;0.68;;;19.90;93.40;;;;;;10448671;28;20520;-27
2022/10/31 00:44:42;;;;;;;2.55;0.50;;;20.40;92.00;;;;;;10450014;28;20138;-26
2022/10/31 00:49:44;;;;;;;0.85;0.40;;;20.70;91.10;;;;;;10453904;28;20077;-28
2022/10/31 00:54:46;;;;;;;1.70;1.00;;;20.40;91.90;;;;;;10437326;28;20575;-31
2022/10/31 00:59:49;;;;;;;2.38;1.13;;;20.40;91.70;;;;;;10446446;28;20139;-29
2022/10/31 01:04:51;;;;;;;2.38;0.63;;;20.60;91.10;;;;;;10442908;28;20140;-32
2022/10/31 01:09:53;;;;;;;2.25;0.70;;;20.70;90.80;;;;;;10439015;28;20076;-29
2022/10/31 01:14:56;;;;;;;1.05;0.70;;;20.80;90.60;;;;;;10443839;28;20580;-28
2022/10/31 01:19:58;;;;;;;2.03;0.70;;;20.80;90.50;;;;;;10448419;28;20064;-28
2022/10/31 01:25:00;;;;;;;5.38;0.95;;;20.80;90.50;;;;;;10444707;28;20099;-29
2022/10/31 01:30:04;;;;;;;4.13;0.63;;;20.80;90.50;;;;;;10455327;28;20206;-28
2022/10/31 01:35:06;;;;;;;1.90;0.90;;;20.80;90.60;;;;;;10465835;28;20472;-29
2022/10/31 01:40:09;;;;;;;1.10;0.50;;;20.80;90.40;;;;;;10457943;28;20072;-27
2022/10/31 01:45:16;;;;;;;1.55;0.70;;;20.80;90.40;;;;;;10456516;28;20053;-27
2022/10/31 01:50:29;;;;;;;2.40;0.60;;;20.70;90.40;;;;;;10438092;28;20068;-28
2022/10/31 01:55:34;;;;;;;1.20;0.70;;;20.80;90.40;;;;;;10446628;28;20049;-34
2022/10/31 02:00:38;;;;;;;2.22;0.63;;;20.80;90.40;;;;;;10461572;28;20102;-29
2022/10/31 02:05:41;;;;;;;1.70;0.68;;;20.80;90.30;;;;;;10464034;28;20099;-35
2022/10/31 02:10:44;;;;;;;1.88;0.90;;;20.80;90.40;;;;;;10460469;28;20053;-34
2022/10/31 02:15:51;;;;;;;1.42;0.60;;;20.80;90.30;;;;;;10455026;28;20410;-27
2022/10/31 02:21:02;;;;;;;1.13;0.50;;;20.80;90.40;;;;;;10466843;28;20096;-29
2022/10/31 02:26:26;;;;;;;0.60;0.50;;;20.80;90.30;;;;;;10435350;28;20044;-29
2022/10/31 02:31:36;;;;;;;1.55;0.70;;;20.80;90.40;;;;;;10440842;28;20130;-27
2022/10/31 02:36:44;;;;;;;1.17;0.70;;;20.70;90.30;;;;;;10435286;28;20126;-28
2022/10/31 02:41:50;;;;;;;2.00;0.80;;;20.80;90.30;;;;;;10451128;28;20076;-26
2022/10/31 02:47:00;;;;;;;1.65;0.85;;;20.80;90.30;;;;;;10446925;28;20068;-30
2022/10/31 02:52:02;;;;;;;2.72;0.50;;;20.70;90.30;;;;;;10444793;28;20072;-28
2022/10/31 02:57:08;;;;;;;1.08;0.95;;;20.80;90.30;;;;;;10433522;28;20084;-27
2022/10/31 03:02:26;;;;;;;0.50;0.50;;;20.70;90.20;;;;;;10449426;28;20463;-27
2022/10/31 03:07:40;;;;;;;1.65;0.88;;;20.70;90.30;;;;;;10456017;28;20057;-31
2022/10/31 03:12:50;;;;;;;1.48;0.50;;;20.70;90.30;;;;;;10454451;28;20456;-28
2022/10/31 03:17:59;;;;;;;1.45;0.80;;;20.70;90.30;;;;;;10458223;28;20040;-28
2022/10/31 03:23:03;;;;;;;2.92;0.60;;;20.70;90.30;;;;;;10455035;28;20040;-28
2022/10/31 03:28:06;;;;;;;2.50;0.73;;;20.70;90.30;;;;;;10472099;28;20114;-28
2022/10/31 03:33:14;;;;;;;1.13;0.90;;;20.70;90.30;;;;;;10463097;28;20045;-35
2022/10/31 03:38:16;;;;;;;1.42;1.00;;;20.70;90.30;;;;;;10455647;28;20072;-27
2022/10/31 03:43:31;;;;;;;0.73;0.60;;;20.70;90.20;;;;;;10447289;28;20132;-28
2022/10/31 03:48:35;;;;;;;1.88;0.73;;;20.70;90.30;;;;;;10463013;28;20167;-29
2022/10/31 03:53:42;;;;;;;2.22;0.90;;;20.60;90.30;;;;;;10457282;28;20107;-27
2022/10/31 03:58:49;;;;;;;0.70;0.68;;;20.60;90.30;;;;;;10482396;28;20086;-27
2022/10/31 04:03:53;;;;;;;1.40;0.70;;;20.60;90.30;;;;;;10458837;28;20073;-29
2022/10/31 04:08:59;;;;;;;1.50;0.80;;;20.60;90.30;;;;;;10460553;28;20565;-30
2022/10/31 04:14:03;;;;;;;1.17;0.70;;;20.60;90.30;;;;;;10450965;28;20148;-26
2022/10/31 04:19:06;;;;;;;1.08;0.70;;;20.60;90.30;;;;;;10468897;28;20127;-26
2022/10/31 04:24:08;;;;;;;1.33;0.70;;;20.60;90.20;;;;;;10466909;28;20071;-25
2022/10/31 04:29:10;;;;;;;1.80;1.17;;;20.50;90.30;;;;;;10451075;28;20079;-26
2022/10/31 04:34:13;;;;;;;0.75;0.60;;;20.50;90.30;;;;;;10444733;28;20077;-31
2022/10/31 04:39:15;;;;;;;1.40;0.88;;;20.50;90.20;;;;;;10450030;28;20147;-26
2022/10/31 04:44:17;;;;;;;2.35;0.82;;;20.50;90.20;;;;;;10461012;28;20103;-27
2022/10/31 04:49:20;;;;;;;1.52;0.80;;;20.50;90.30;;;;;;10447715;28;20464;-31
2022/10/31 04:54:22;;;;;;;5.63;0.98;;;20.50;90.30;;;;;;10454278;28;20163;-32
2022/10/31 04:59:24;;;;;;;0.70;0.70;;;20.50;90.20;;;;;;10453046;28;20072;-33
2022/10/31 05:04:27;;;;;;;1.63;0.98;;;20.50;90.20;;;;;;10447523;28;20049;-34
2022/10/31 05:09:29;;;;;;;1.58;0.85;;;20.40;90.20;;;;;;10439031;28;20060;-32
2022/10/31 05:14:31;;;;;;;0.77;0.60;;;20.50;90.20;;;;;;10447701;28;20081;-30
2022/10/31 05:19:34;;;;;;;1.85;0.70;;;20.50;90.30;;;;;;10444211;28;20044;-28
2022/10/31 05:24:36;;;;;;;1.20;0.90;;;20.40;90.20;;;;;;10438385;28;20099;-28
2022/10/31 05:29:38;;;;;;;2.35;1.00;;;20.50;90.20;;;;;;10433427;28;20512;-27
2022/10/31 05:34:41;;;;;;;1.48;0.98;;;20.40;90.20;;;;;;10429093;28;20051;-27
2022/10/31 05:39:43;;;;;;;1.65;1.00;;;20.40;90.20;;;;;;10432160;28;20064;-28
2022/10/31 05:44:45;;;;;;;1.20;0.77;;;20.40;90.20;;;;;;10421203;28;20512;-27
2022/10/31 05:49:48;;;;;;;1.20;0.90;;;20.40;90.20;;;;;;10423134;28;20448;-32
2022/10/31 05:54:50;;;;;;;0.93;0.90;;;20.40;90.10;;;;;;10424060;28;20128;-26
2022/10/31 05:59:52;;;;;;;1.63;1.15;;;20.40;90.20;;;;;;10434856;28;20140;-33
2022/10/31 06:04:55;;;;;;;1.50;1.17;;;20.40;90.20;;;;;;10448469;28;20446;-30
2022/10/31 06:09:57;;;;;;;1.75;1.15;;;20.40;90.10;;;;;;10447555;28;20489;-29
2022/10/31 06:14:59;;;;;;;1.13;1.02;;;20.30;90.20;;;;;;10448533;28;21700;-28
2022/10/31 06:20:03;;;;;;;1.42;0.90;;;20.30;90.20;;;;;;10447994;28;20053;-28
2022/10/31 06:25:05;;;;;;;2.20;1.10;;;20.30;90.20;;;;;;10440148;28;20046;-28
2022/10/31 06:30:07;;;;;;;;;;;20.30;90.30;;;;;;10442183;28;20556;-28
2022/10/31 06:35:10;;;;;;;2.35;1.35;;;20.30;90.30;;;;;;10456838;28;19978;-35
2022/10/31 06:40:12;;;;;;;1.17;0.93;;;20.30;90.30;;;;;;10452949;28;20044;-30
2022/10/31 06:45:14;;;;;;;2.50;1.27;;;20.30;90.20;;;;;;10450024;28;20053;-28
2022/10/31 06:50:18;;;;;;;3.05;1.33;;;20.30;90.30;;;;;;10441086;28;20053;-27
2022/10/31 06:55:22;;;;;;;2.55;1.45;;;20.30;90.30;;;;;;10444554;28;20106;-26
2022/10/31 07:00:25;;;;;;;1.92;1.25;;;20.20;90.30;;;;;;10432049;28;20123;-27
2022/10/31 07:05:29;;;;;;;1.23;0.90;;;20.20;90.20;;;;;;10441148;28;20095;-29
2022/10/31 07:10:33;;;;;;;3.65;1.58;;;20.30;90.20;;;;;;10436663;28;20467;-27
2022/10/31 07:15:38;;;;;;;4.05;1.65;;;20.30;90.20;;;;;;10445836;28;20049;-32
2022/10/31 07:20:41;;;;;;;2.55;1.15;;;20.30;90.10;;;;;;10444869;28;20147;-25
2022/10/31 07:25:43;;;;;;;3.05;1.45;;;20.30;90.10;;;;;;10452186;28;20067;-29
2022/10/31 07:30:51;;;;;;;4.03;1.20;;;20.30;90.10;;;;;;10459863;28;20512;-29
2022/10/31 07:35:54;;;;;;;1.73;1.25;;;20.30;90.20;;;;;;10466450;28;20080;-34
2022/10/31 07:40:56;;;;;;;3.65;1.30;;;20.30;90.10;;;;;;10446369;28;20576;-27
2022/10/31 07:45:58;;;;;;;3.05;1.40;;;20.30;90.10;;;;;;10439652;28;20048;-28
2022/10/31 07:51:01;;;;;;;1.70;1.30;;;20.30;90.10;;;;;;10449968;28;20102;-28
2022/10/31 07:56:03;;;;;;;5.07;2.38;;;20.20;90.10;;;;;;10443616;28;20063;-29
2022/10/31 08:01:05;;;;;;;3.65;1.55;;;20.20;90.30;;;;;;10440115;28;20116;-28
2022/10/31 08:06:08;;;;;;;3.38;2.30;;;20.30;90.20;;;;;;10445070;28;20040;-28
2022/10/31 08:11:10;;;;;;;5.90;1.70;;;20.20;90.20;;;;;;10448829;28;20076;-26
2022/10/31 08:16:12;;;;;;;3.25;1.77;;;20.30;90.00;;;;;;10447022;28;20583;-26
2022/10/31 08:21:15;;;;;;;3.75;1.80;;;20.30;90.20;;;;;;10460473;28;20076;-28
2022/10/31 08:26:17;;;;;;;7.55;2.40;;;20.30;90.30;;;;;;10457962;28;20438;-29
2022/10/31 08:31:19;;;;;;;4.70;2.13;;;20.30;90.30;;;;;;10454342;28;20057;-28
2022/10/31 08:36:23;;;;;;;4.25;1.88;;;20.30;90.30;;;;;;10451819;28;20079;-29
2022/10/31 08:41:25;;;;;;;4.30;2.58;;;20.30;90.30;;;;;;10456422;28;20115;-27
2022/10/31 08:46:27;;;;;;;5.70;2.17;;;20.30;90.30;;;;;;10454928;28;20037;-31
2022/10/31 08:51:30;;;;;;;5.10;2.42;;;20.30;90.30;;;;;;10463575;28;20065;-27
2022/10/31 08:56:32;;;;;;;6.03;2.70;;;20.30;90.60;;;;;;10457776;28;20048;-32
2022/10/31 09:01:34;;;;;;;4.13;2.60;;;20.30;90.30;;;;;;10470937;28;20048;-29
2022/10/31 09:06:37;;;;;;;5.25;2.63;;;20.30;90.40;;;;;;10459716;28;20056;-26
2022/10/31 09:11:39;;;;;;;4.95;2.65;;;20.30;90.40;;;;;;10445788;28;20049;-26
2022/10/31 09:16:41;;;;;;;7.93;4.05;;;20.30;90.20;;;;;;10437656;28;20049;-27
2022/10/31 09:21:44;;;;;;;7.10;2.95;;;20.30;90.20;;;;;;10447084;28;20110;-27
2022/10/31 09:26:46;;;;;;;12.57;3.35;;;20.30;90.20;;;;;;10459857;28;20041;-27
2022/10/31 09:31:47;;;;;;;5.03;2.95;;;20.30;90.20;;;;;;10458064;28;20127;-29
2022/10/31 09:36:51;;;;;;;4.47;2.88;;;20.30;90.10;;;;;;10466134;28;20076;-27
2022/10/31 09:42:18;;;;;;;4.97;3.25;;;20.30;90.00;;;;;;10456183;28;20040;-31
2022/10/31 09:47:32;;;;;;;6.30;3.60;;;20.30;90.00;;;;;;10456897;28;20061;-31
2022/10/31 09:52:40;;;;;;;6.78;3.83;;;20.30;90.10;;;;;;10469549;28;20139;-27
2022/10/31 09:57:43;;;;;;;7.13;3.47;;;20.40;90.00;;;;;;10457439;28;20049;-27
2022/10/31 10:02:48;;;;;;;4.60;3.10;;;20.40;90.00;;;;;;10472774;28;20529;-27
2022/10/31 10:08:01;;;;;;;6.75;3.72;;;20.40;90.00;;;;;;10453643;28;20080;-29
2022/10/31 10:13:20;;;;;;;5.07;2.97;;;20.40;89.80;;;;;;10454506;28;20445;-29
2022/10/31 10:18:37;;;;;;;6.03;2.90;;;20.40;89.70;;;;;;10462185;28;20133;-27
2022/10/31 10:23:57;;;;;;;10.55;3.30;;;20.50;89.20;;;;;;10443445;28;20073;-30
2022/10/31 10:29:04;;;;;;;5.70;3.50;;;20.40;89.20;;;;;;10446125;28;20106;-28
2022/10/31 10:34:13;;;;;;;4.22;2.65;;;20.50;89.00;;;;;;10432541;28;20099;-27
2022/10/31 10:39:21;;;;;;;7.13;3.10;;;20.50;88.90;;;;;;10442669;28;20449;-28
2022/10/31 10:49:45;;;;;;;8.27;3.17;;;20.50;88.70;;;;;;10392464;28;20117;-28
2022/10/31 10:55:00;;;;;;;6.72;3.05;;;20.50;88.50;;;;;;10435149;28;20148;-29
2022/10/31 11:00:16;;;;;;;4.25;2.72;;;20.50;88.60;;;;;;10448642;28;20045;-27
2022/10/31 11:05:37;;;;;;;4.80;2.75;;;20.50;88.60;;;;;;10456788;28;20041;-27
2022/10/31 11:10:41;;;;;;;5.38;2.60;;;20.50;88.30;;;;;;10447605;28;20059;-26
2022/10/31 11:15:53;;;;;;;4.97;2.83;;;20.50;88.20;;;;;;10454640;28;20127;-28
2022/10/31 11:20:55;;;;;;;;;;;20.50;88.70;;;;;;10449185;28;20135;-28
2022/10/31 11:26:00;;;;;;;5.03;2.78;;;20.50;88.00;;;;;;10458860;28;19920;-29
2022/10/31 11:31:08;;;;;;;6.55;3.33;;;20.60;87.90;;;;;;10452641;28;20094;-28
2022/10/31 11:36:19;;;;;;;6.07;2.42;;;20.60;87.80;;;;;;10443786;28;20095;-29
2022/10/31 11:41:31;;;;;;;10.02;3.00;;;20.60;87.90;;;;;;10448580;28;20131;-30
2022/10/31 11:46:38;;;;;;;5.90;2.87;;;20.50;87.80;;;;;;10453139;28;20488;-30
2022/10/31 11:51:41;;;;;;;7.10;3.28;;;20.50;88.30;;;;;;10436240;28;20053;-28
2022/10/31 11:56:44;;;;;;;5.80;2.90;;;20.40;88.80;;;;;;10457266;28;20052;-30
2022/10/31 12:01:49;;;;;;;6.40;4.88;;;20.40;88.90;;;;;;10461205;28;20037;-29
2022/10/31 12:06:53;;;;;;;3.25;2.40;;;20.30;89.20;;;;;;10461991;28;20057;-31
2022/10/31 12:12:26;;;;;;;4.75;2.40;;;20.60;88.00;;;;;;10446905;28;20136;-29
2022/10/31 12:17:31;;;;;;;;;;;20.60;87.90;;;;;;10452739;28;20088;-27
2022/10/31 12:22:43;;;;;;;7.13;2.53;;;20.60;88.10;;;;;;10440175;28;20332;-29
2022/10/31 12:28:13;;;;;;;4.65;2.60;;;20.70;87.60;;;;;;10442351;28;20045;-29
2022/10/31 12:33:30;;;;;;;5.35;3.20;;;20.70;87.30;;;;;;10444610;28;20069;-27
2022/10/31 12:38:51;;;;;;;5.00;2.90;;;20.60;87.70;;;;;;10440094;28;20115;-28
2022/10/31 12:44:01;;;;;;;8.18;3.33;;;20.70;87.50;;;;;;10433510;28;20505;-29
2022/10/31 12:49:20;;;;;;;9.85;3.83;;;20.70;89.80;;;;;;10446470;28;20041;-27
2022/10/31 12:54:38;;;;;;;11.68;7.65;;;20.80;88.70;;;;;;10433784;28;20045;-28
2022/10/31 12:59:45;;;;;;;5.50;4.03;;;20.80;89.20;;;;;;10443598;28;20045;-28
2022/10/31 13:04:52;;;;;;;8.38;4.57;;;20.90;88.80;;;;;;10437451;28;20045;-26
2022/10/31 13:10:00;;;;;;;8.15;4.65;;;21.00;88.80;;;;;;10444859;28;20127;-26
2022/10/31 13:15:13;;;;;;;6.80;4.32;;;21.00;88.90;;;;;;10443038;28;20090;-27
2022/10/31 13:20:21;;;;;;;9.02;4.95;;;21.00;88.40;;;;;;10426468;28;20047;-32
2022/10/31 13:25:27;;;;;;;11.65;4.57;;;21.10;87.90;;;;;;10417796;28;20084;-26
2022/10/31 13:30:36;;;;;;;7.82;4.05;;;21.20;87.50;;;;;;10414875;28;20057;-27
2022/10/31 13:35:46;;;;;;;9.20;4.90;;;21.20;87.30;;;;;;10425771;28;20052;-28
2022/10/31 13:40:55;;;;;;;12.75;5.07;;;21.20;87.30;;;;;;10463608;28;20140;-27
2022/10/31 13:45:59;;;;;;;8.02;4.28;;;21.20;87.10;;;;;;10447908;28;20432;-29
2022/10/31 13:51:06;;;;;;;7.22;4.43;;;21.20;86.90;;;;;;10439547;28;20084;-28
2022/10/31 13:56:20;;;;;;;6.38;4.40;;;21.30;87.10;;;;;;10434722;28;20470;-29
2022/10/31 14:01:24;;;;;;;14.15;6.50;;;21.40;86.50;;;;;;10439222;28;20515;-28
2022/10/31 14:06:38;;;;;;;7.43;4.40;;;21.40;86.90;;;;;;10450599;28;20053;-28
2022/10/31 14:11:40;;;;;;;10.23;4.97;;;21.40;87.00;;;;;;10445931;28;20049;-27
2022/10/31 14:16:45;;;;;;;7.15;4.20;;;21.40;86.90;;;;;;10448789;28;20057;-28
2022/10/31 14:21:48;;;;;;;8.50;4.35;;;21.40;87.20;;;;;;10439799;28;20099;-29
2022/10/31 14:26:55;;;;;;;7.05;4.15;;;21.50;87.20;;;;;;10454569;28;20041;-27
2022/10/31 14:32:10;;;;;;;10.93;3.78;;;21.50;87.40;;;;;;10456620;28;20061;-30
2022/10/31 14:37:29;;;;;;;6.93;3.38;;;21.50;87.30;;;;;;10464781;28;20394;-28
2022/10/31 14:42:45;;;;;;;7.00;3.92;;;21.50;87.30;;;;;;10462609;28;20045;-28
2022/10/31 14:47:59;;;;;;;6.88;3.95;;;21.50;87.30;;;;;;10462620;28;20076;-27
2022/10/31 14:53:04;;;;;;;7.60;4.65;;;21.50;87.40;;;;;;10450942;28;20133;-29
2022/10/31 14:58:08;;;;;;;6.82;3.97;;;21.60;87.30;;;;;;10426606;28;20129;-29
2022/10/31 15:03:15;;;;;;;9.23;5.63;;;21.60;87.30;;;;;;10425424;28;20504;-27
2022/10/31 15:08:31;;;;;;;4.50;3.40;;;21.40;88.00;;;;;;10430532;28;20057;-28
2022/10/31 15:13:33;;;;;;;18.15;8.88;;;21.60;87.80;;;;;;10437011;28;20432;-28
2022/10/31 15:18:45;;;;;;;5.93;3.22;;;21.40;88.60;;;;;;10467052;28;20863;-27
2022/10/31 15:23:48;;;;;;;6.45;3.08;;;21.60;88.10;;;;;;10456684;28;20037;-28
2022/10/31 15:28:59;;;;;;;5.82;3.47;;;21.70;87.80;;;;;;10455789;28;20133;-24
2022/10/31 15:34:06;;;;;;;6.55;3.20;;;21.90;90.50;;;;;;10461345;28;20140;-26
2022/10/31 15:39:12;;;;;;;6.32;3.65;;;22.50;89.10;;;;;;10463058;28;20049;-24
2022/10/31 15:44:19;;;;;;;23.25;3.80;;;22.60;84.10;;;;;;10463869;28;20127;-24
2022/10/31 15:49:36;;;;;;;5.25;3.35;;;22.30;87.80;;;;;;10459621;28;20603;-25
2022/10/31 15:54:48;;;;;;;9.88;3.97;;;22.40;87.40;;;;;;10454078;28;20049;-26
2022/10/31 15:59:50;;;;;;;12.23;3.60;;;22.20;87.20;;;;;;10451153;28;20055;-26
2022/10/31 16:04:56;;;;;;;7.47;4.10;;;22.20;89.70;;;;;;10446392;28;20533;-25
2022/10/31 16:09:59;;;;;;;7.20;3.90;;;22.40;86.50;;;;;;10440873;28;20104;-26
2022/10/31 16:15:02;;;;;;;7.20;4.28;;;22.00;88.50;;;;;;10451192;28;20044;-29
2022/10/31 16:20:06;;;;;;;7.55;4.20;;;22.00;88.30;;;;;;10440257;28;20049;-26
2022/10/31 16:25:12;;;;;;;6.00;3.75;;;21.90;88.90;;;;;;10447715;28;20132;-26
2022/10/31 16:30:37;;;;;;;9.23;4.38;;;21.90;89.10;;;;;;10446154;28;20053;-26
2022/10/31 16:35:40;;;;;;;5.70;3.80;;;21.80;89.40;;;;;;10428116;28;20458;-27
2022/10/31 16:40:43;;;;;;;9.73;4.35;;;21.80;89.60;;;;;;10453424;28;20049;-28
2022/10/31 16:45:46;;;;;;;10.73;4.07;;;21.80;89.60;;;;;;10449869;28;20484;-28
2022/10/31 16:50:51;;;;;;;9.10;4.20;;;21.80;89.80;;;;;;10447812;28;20056;-30
2022/10/31 16:55:55;;;;;;;7.50;4.18;;;21.80;89.80;;;;;;10431296;28;20052;-29
2022/10/31 17:00:58;;;;;;;7.90;5.03;;;21.70;90.20;;;;;;10451165;28;20137;-32
2022/10/31 17:06:01;;;;;;;8.45;3.92;;;21.70;90.00;;;;;;10427049;28;20476;-27
2022/10/31 17:11:04;;;;;;;7.60;4.03;;;21.80;89.70;;;;;;10443058;28;20056;-28
2022/10/31 17:16:07;;;;;;;8.18;4.15;;;21.80;89.60;;;;;;10445626;28;20041;-27
2022/10/31 17:21:18;;;;;;;9.60;4.93;;;21.80;90.30;;;;;;10438522;28;20072;-31
2022/10/31 17:26:20;;;;;;;9.10;4.47;;;21.80;89.90;;;;;;10435117;28;20049;-28
2022/10/31 17:31:22;;;;;;;;;;;21.80;90.30;;;;;;10446431;28;20065;-26
2022/10/31 17:36:26;;;;;;;;;;;21.80;90.20;;;;;;10445152;28;19924;-27
2022/10/31 17:41:28;;;;;;;11.70;4.90;;;21.70;90.60;;;;;;10441553;28;19920;-30
2022/10/31 17:46:29;;;;;;;;;;;21.80;90.30;;;;;;10454522;28;20124;-28
2022/10/31 17:51:33;;;;;;;15.32;5.68;;;21.80;90.50;;;;;;10426694;28;20385;-29
2022/10/31 17:56:35;;;;;;;11.07;5.30;;;21.70;90.60;;;;;;10447487;28;20118;-28
2022/10/31 18:01:38;;;;;;;;;;;21.70;90.80;;;;;;10430507;28;20048;-26
2022/10/31 18:06:41;;;;;;;15.70;5.00;;;21.60;91.00;;;;;;10445920;28;19924;-28
2022/10/31 18:11:43;;;;;;;12.63;5.45;;;21.70;93.80;;;;;;10439257;28;20077;-30
2022/10/31 18:16:45;;;;;;;19.45;5.47;;;21.80;91.60;;;;;;10434048;28;20387;-26
2022/10/31 18:21:48;;;;;;;21.42;7.80;;;21.70;91.70;;;;;;10434309;28;20649;-26
2022/10/31 18:26:50;;;;;;;26.50;9.13;;;21.70;91.90;;;;;;10446653;28;20045;-26
2022/10/31 18:31:53;;;;;;;26.48;9.98;;;21.70;92.10;;;;;;10438818;28;20466;-26
2022/10/31 18:36:56;;;;;;;21.35;8.63;;;21.60;92.10;;;;;;10429013;28;20049;-27
2022/10/31 18:41:58;;;;;;;17.85;7.53;;;21.60;92.30;;;;;;10439069;28;20041;-26
2022/10/31 18:47:00;;;;;;;24.63;8.38;;;21.60;92.10;;;;;;10418886;28;20076;-32
2022/10/31 18:52:03;;;;;;;17.17;6.75;;;21.90;92.70;;;;;;10423478;28;20051;-33
2022/10/31 18:57:05;;;;;;;22.90;8.65;;;21.80;92.00;;;;;;10433757;28;20052;-34
2022/10/31 19:02:07;;;;;;;;;;;21.70;92.30;;;;;;10423208;28;20056;-28
2022/10/31 19:07:10;;;;;;;38.30;11.17;;;21.70;92.40;;;;;;10422808;28;20339;-29
2022/10/31 19:12:12;;;;;;;38.75;12.43;;;21.60;92.50;;;;;;10427567;28;20286;-28
2022/10/31 19:17:14;;;;;;;33.92;12.25;;;21.70;92.30;;;;;;10434555;28;20060;-29
2022/10/31 19:22:17;;;;;;;24.77;10.10;;;21.60;92.50;;;;;;10449555;28;20098;-30
2022/10/31 19:27:19;;;;;;;27.48;9.27;;;21.60;92.70;;;;;;10445742;28;20052;-33
2022/10/31 19:32:21;;;;;;;25.30;9.13;;;21.60;92.50;;;;;;10428093;28;20045;-31
2022/10/31 19:37:24;;;;;;;27.52;8.27;;;21.60;92.50;;;;;;10466524;28;20452;-29
2022/10/31 19:42:27;;;;;;;21.48;7.93;;;21.60;92.50;;;;;;10459375;28;20481;-28
2022/10/31 19:47:29;;;;;;;18.65;7.18;;;21.60;92.50;;;;;;10451836;28;20162;-28
2022/10/31 19:52:34;;;;;;;15.05;6.20;;;21.50;92.50;;;;;;10445085;28;20041;-28
2022/10/31 19:57:37;;;;;;;15.38;7.07;;;21.60;92.40;;;;;;10448589;28;20148;-29
2022/10/31 20:02:39;;;;;;;15.63;6.05;;;21.50;92.40;;;;;;10449132;28;20049;-30
2022/10/31 20:07:42;;;;;;;13.63;5.13;;;21.60;92.30;;;;;;10449897;28;20088;-28
2022/10/31 20:12:44;;;;;;;12.75;5.05;;;21.50;92.20;;;;;;10440615;28;21555;-31
2022/10/31 20:17:46;;;;;;;15.02;5.38;;;21.50;92.10;;;;;;10447651;28;20060;-29
2022/10/31 20:22:49;;;;;;;15.32;5.35;;;21.40;92.20;;;;;;10441233;28;20081;-27
2022/10/31 20:27:51;;;;;;;12.60;4.65;;;21.30;92.20;;;;;;10459066;28;20462;-29
2022/10/31 20:32:53;;;;;;;16.33;4.70;;;21.30;92.10;;;;;;10447826;28;20048;-28
2022/10/31 20:37:56;;;;;;;;;;;21.20;92.40;;;;;;10454006;28;20090;-32
2022/10/31 20:42:58;;;;;;;12.70;4.40;;;21.00;92.50;;;;;;10443307;28;19921;-28
2022/10/31 20:48:00;;;;;;;13.18;4.43;;;21.20;92.20;;;;;;10439946;28;20106;-28
2022/10/31 20:53:04;;;;;;;10.95;4.63;;;20.80;92.30;;;;;;10443776;28;20041;-29
2022/10/31 20:58:06;;;;;;;13.43;4.75;;;21.10;92.20;;;;;;10449438;28;20084;-28
2022/10/31 21:03:09;;;;;;;12.13;4.50;;;21.00;92.50;;;;;;10453945;28;20049;-27
2022/10/31 21:08:12;;;;;;;12.93;4.55;;;21.10;92.20;;;;;;10445870;28;20044;-26
2022/10/31 21:13:14;;;;;;;12.02;4.82;;;21.20;91.60;;;;;;10449766;28;20052;-27
2022/10/31 21:18:15;;;;;;;11.65;4.50;;;21.10;91.80;;;;;;10434494;28;20080;-28
2022/10/31 21:23:19;;;;;;;11.77;4.78;;;21.10;91.70;;;;;;10446382;28;20049;-28
2022/10/31 21:28:21;;;;;;;13.45;4.55;;;21.10;91.40;;;;;;10437281;28;20108;-26
2022/10/31 21:33:22;;;;;;;7.10;4.07;;;21.10;91.50;;;;;;10441446;28;20090;-26
2022/10/31 21:38:26;;;;;;;8.20;4.47;;;21.10;89.70;;;;;;10422823;28;20163;-27
2022/10/31 21:43:28;;;;;;;10.07;4.13;;;20.80;91.40;;;;;;10425051;28;20136;-27
2022/10/31 21:48:30;;;;;;;13.20;4.30;;;21.10;91.20;;;;;;10431528;28;20049;-27
2022/10/31 21:58:53;;;;;;;9.05;4.38;;;20.60;92.00;;;;;;10443515;28;20521;-30
2022/10/31 22:03:56;;;;;;;10.02;3.38;;;20.70;91.80;;;;;;10432411;28;20042;-29
2022/10/31 22:09:01;;;;;;;8.77;4.45;;;20.70;91.70;;;;;;10452214;28;20065;-27
2022/10/31 22:14:03;;;;;;;10.68;4.32;;;20.50;92.10;;;;;;10450943;28;20065;-27
2022/10/31 22:19:06;;;;;;;7.90;3.90;;;20.70;91.80;;;;;;10442246;28;20131;-29
2022/10/31 22:24:10;;;;;;;9.52;4.10;;;20.70;91.50;;;;;;10454410;28;20150;-28
2022/10/31 22:29:15;;;;;;;7.28;4.05;;;20.80;91.40;;;;;;10442071;28;20060;-28
2022/10/31 22:34:17;;;;;;;14.48;5.15;;;20.70;91.90;;;;;;10451946;28;20048;-25
2022/10/31 22:39:21;;;;;;;8.23;3.95;;;20.60;92.10;;;;;;10449614;28;20056;-26
2022/10/31 22:44:23;;;;;;;12.73;5.20;;;20.60;92.30;;;;;;10440459;28;20100;-29
2022/10/31 22:49:25;;;;;;;;;;;20.70;91.60;;;;;;10453804;28;20044;-29
2022/10/31 22:54:29;;;;;;;12.90;4.53;;;20.70;91.90;;;;;;10463344;28;19920;-28
2022/10/31 22:59:31;;;;;;;11.02;4.00;;;20.40;92.40;;;;;;10449456;28;20071;-26
2022/10/31 23:04:33;;;;;;;8.10;3.97;;;20.40;92.10;;;;;;10462813;28;21036;-30
2022/10/31 23:09:36;;;;;;;7.85;3.67;;;20.30;92.50;;;;;;10449571;28;20536;-27
2022/10/31 23:14:38;;;;;;;11.57;4.13;;;20.50;92.20;;;;;;10451408;28;20088;-28
2022/10/31 23:19:40;;;;;;;16.20;3.58;;;20.50;92.10;;;;;;10437969;28;20052;-28
2022/10/31 23:24:44;;;;;;;9.05;3.67;;;20.50;92.00;;;;;;10445952;28;20072;-28
2022/10/31 23:29:48;;;;;;;11.15;3.65;;;20.70;91.70;;;;;;10438365;28;20049;-28
2022/10/31 23:34:52;;;;;;;8.13;4.00;;;20.40;92.10;;;;;;10444597;28;20103;-27
2022/10/31 23:39:55;;;;;;;10.10;3.83;;;20.40;92.40;;;;;;10440705;28;20052;-28
2022/10/31 23:44:57;;;;;;;9.50;3.58;;;20.40;92.20;;;;;;10465737;28;20103;-28
2022/10/31 23:49:59;;;;;;;8.88;3.38;;;20.40;92.40;;;;;;10448179;28;20437;-29
2022/10/31 23:55:02;;;;;;;8.07;4.20;;;20.50;91.70;;;;;;10450602;28;20548;-27
